Time;durP1;ratioP1;P1;durP2;ratioP2;P2;SDS_P1;SDS_P2;PMS_P1;PMS_P2;Temp;Humidity;BMP_temperature;BMP_pressure;BME280_temperature;BME280_humidity;BME280_pressure;Samples;Min_cycle;Max_cycle;Signal;HPM_P1;HPM_P2
2021/11/29 00:07:13;;;;;;;2.10;1.90;;;;;;;9.40;100.00;99286.28;31457000;28;20068;-73
2021/11/29 00:22:15;;;;;;;1.33;1.33;;;;;;;9.53;100.00;99295.19;31441234;28;20051;-74
2021/11/29 00:37:18;;;;;;;2.17;1.93;;;;;;;9.66;100.00;99291.75;31456360;28;20062;-74
2021/11/29 00:52:20;;;;;;;1.77;1.67;;;;;;;9.72;100.00;99277.22;31459274;28;20056;-74
2021/11/29 01:07:22;;;;;;;0.80;0.80;;;;;;;9.80;100.00;99262.28;31443839;28;20498;-75
2021/11/29 01:22:24;;;;;;;1.27;0.77;;;;;;;9.88;100.00;99260.88;31408440;28;20059;-73
2021/11/29 01:37:26;;;;;;;0.50;0.50;;;;;;;10.02;100.00;99240.69;31421084;28;20064;-75
2021/11/29 01:52:28;;;;;;;0.90;0.90;;;;;;;10.09;100.00;99220.75;31435216;28;20044;-74
2021/11/29 02:07:30;;;;;;;1.33;1.00;;;;;;;10.06;100.00;99227.03;31417235;28;20135;-75
2021/11/29 02:22:33;;;;;;;0.77;0.77;;;;;;;9.81;100.00;99206.13;31428462;28;20040;-73
2021/11/29 02:37:35;;;;;;;1.70;1.60;;;;;;;9.52;100.00;99195.38;31398213;28;20429;-75
2021/11/29 02:52:38;;;;;;;4.60;1.57;;;;;;;9.39;100.00;99181.06;31435497;28;20054;-75
2021/11/29 03:07:39;;;;;;;2.17;0.77;;;;;;;9.40;100.00;99155.50;31444678;28;20052;-73
2021/11/29 03:22:44;;;;;;;1.47;1.37;;;;;;;9.22;100.00;99161.41;31414012;28;20688;-74
2021/11/29 03:37:46;;;;;;;0.83;0.70;;;;;;;9.11;100.00;99177.22;31425457;28;20045;-74
2021/11/29 03:52:48;;;;;;;1.33;1.23;;;;;;;9.03;100.00;99176.66;31397547;28;20489;-74
2021/11/29 04:07:50;;;;;;;0.50;0.50;;;;;;;9.00;100.00;99171.34;31446556;28;20056;-74
2021/11/29 04:22:52;;;;;;;1.00;1.00;;;;;;;9.01;100.00;99143.09;31444373;28;20132;-72
2021/11/29 04:37:54;;;;;;;0.70;0.70;;;;;;;9.10;100.00;99137.81;31441792;28;20517;-74
2021/11/29 04:52:56;;;;;;;1.30;1.20;;;;;;;9.08;100.00;99130.09;31419239;28;20067;-75
2021/11/29 05:07:58;;;;;;;1.13;1.03;;;;;;;9.03;100.00;99141.47;31429343;28;20041;-75
2021/11/29 05:23:01;;;;;;;0.50;0.50;;;;;;;8.97;100.00;99118.09;31427312;28;20052;-75
2021/11/29 05:38:03;;;;;;;1.03;0.93;;;;;;;9.00;100.00;99122.63;31423756;28;20061;-74
2021/11/29 05:53:05;;;;;;;1.33;1.33;;;;;;;9.05;100.00;99103.91;31426940;28;20057;-74
2021/11/29 06:08:07;;;;;;;1.60;1.50;;;;;;;9.05;100.00;99113.97;31464567;28;20131;-76
2021/11/29 06:23:10;;;;;;;0.40;0.40;;;;;;;8.98;100.00;99079.72;31446871;28;20063;-74
2021/11/29 06:38:12;;;;;;;1.13;1.13;;;;;;;9.16;100.00;99071.84;31432191;28;20055;-74
2021/11/29 06:53:17;;;;;;;0.97;0.97;;;;;;;9.12;100.00;99073.91;31403073;28;20501;-79
2021/11/29 07:08:19;;;;;;;0.83;0.83;;;;;;;9.07;100.00;99068.28;31441827;28;20494;-78
2021/11/29 07:23:22;;;;;;;1.33;1.23;;;;;;;8.92;100.00;99046.28;31453137;28;20148;-80
2021/11/29 07:38:24;;;;;;;1.00;1.00;;;;;;;8.88;100.00;99034.81;31454695;28;20139;-80
2021/11/29 07:53:26;;;;;;;0.80;0.80;;;;;;;8.83;100.00;98983.91;31435853;28;20052;-80
2021/11/29 08:08:28;;;;;;;1.10;1.10;;;;;;;8.81;100.00;99006.00;31430143;28;20569;-80
2021/11/29 08:23:30;;;;;;;0.40;0.40;;;;;;;8.84;100.00;98964.53;31498397;28;20135;-80
2021/11/29 08:38:34;;;;;;;0.60;0.60;;;;;;;8.92;100.00;98921.03;31451826;28;20051;-81
2021/11/29 08:53:38;;;;;;;0.83;0.83;;;;;;;9.05;100.00;98889.28;31452296;28;20135;-75
2021/11/29 09:08:40;;;;;;;0.40;0.40;;;;;;;9.29;100.00;98832.78;31438569;28;20148;-74
2021/11/29 09:23:43;;;;;;;3.50;2.53;;;;;;;9.54;100.00;98797.44;31468447;28;20084;-73
2021/11/29 09:38:45;;;;;;;1.47;1.27;;;;;;;9.70;100.00;98772.84;31446592;28;20053;-73
2021/11/29 09:53:47;;;;;;;0.80;0.80;;;;;;;10.07;100.00;98713.38;31452611;28;20143;-74
2021/11/29 10:08:50;;;;;;;0.50;0.50;;;;;;;10.25;100.00;98676.22;31456561;28;20060;-73
2021/11/29 10:23:58;;;;;;;15.13;3.87;;;;;;;10.51;100.00;98589.88;31480215;28;20464;-75
2021/11/29 10:39:05;;;;;;;11.73;4.40;;;;;;;10.78;100.00;98531.31;31435505;28;20061;-74
2021/11/29 10:54:13;;;;;;;7.67;3.83;;;;;;;10.76;100.00;98664.03;31475247;28;20139;-72
2021/11/29 11:09:19;;;;;;;12.00;4.90;;;;;;;10.33;100.00;98534.88;31457623;28;20056;-73
2021/11/29 11:24:28;;;;;;;;;;;;;;;10.19;100.00;98496.31;31453213;28;20053;-72
2021/11/29 11:39:31;;;;;;;17.70;6.40;;;;;;;10.24;100.00;98429.88;31436449;28;19927;-73
2021/11/29 11:54:33;;;;;;;11.87;5.47;;;;;;;10.25;100.00;98428.66;31400050;28;20115;-73
2021/11/29 12:09:55;;;;;;;16.57;6.13;;;;;;;10.04;100.00;98392.38;31443758;28;20052;-72
2021/11/29 12:25:16;;;;;;;15.80;6.03;;;;;;;10.04;100.00;98330.03;31451118;28;20063;-71
2021/11/29 12:40:19;;;;;;;21.73;6.57;;;;;;;10.13;100.00;98296.72;31447892;28;20099;-72
2021/11/29 12:55:21;;;;;;;22.00;6.20;;;;;;;10.26;100.00;98253.91;31413129;28;20466;-73
2021/11/29 13:10:46;;;;;;;12.87;5.93;;;;;;;10.16;100.00;98211.75;31453071;28;20103;-74
2021/11/29 13:25:48;;;;;;;19.77;6.70;;;;;;;10.20;100.00;98134.47;31445092;28;20152;-71
2021/11/29 13:40:50;;;;;;;16.13;6.10;;;;;;;10.18;100.00;98119.84;31442143;28;20084;-72
2021/11/29 13:55:57;;;;;;;20.97;6.77;;;;;;;10.19;100.00;98088.84;31432192;28;20143;-73
2021/11/29 14:11:06;;;;;;;22.70;8.57;;;;;;;10.31;100.00;98022.75;31414447;28;20056;-73
2021/11/29 14:26:12;;;;;;;21.90;9.23;;;;;;;10.23;100.00;97980.94;31484787;28;20503;-74
2021/11/29 14:41:14;;;;;;;;;;;;;;;10.33;100.00;97944.41;31438499;28;20048;-74
2021/11/29 14:56:27;;;;;;;26.80;9.97;;;;;;;10.45;100.00;97916.22;31442555;28;19927;-73
2021/11/29 15:11:41;;;;;;;27.27;10.27;;;;;;;10.66;100.00;97875.59;31428416;28;20051;-74
2021/11/29 15:26:49;;;;;;;23.23;9.20;;;;;;;10.89;100.00;97880.09;31436311;28;20075;-72
2021/11/29 15:41:52;;;;;;;21.10;7.63;;;;;;;11.27;100.00;97811.22;31447749;28;20059;-72
2021/11/29 15:56:54;;;;;;;27.03;9.77;;;;;;;11.36;100.00;97851.03;31414254;28;20127;-74
2021/11/29 16:11:56;;;;;;;35.63;9.20;;;;;;;12.02;100.00;97831.22;31442588;28;20127;-75
2021/11/29 16:27:03;;;;;;;34.17;9.83;;;;;;;12.41;100.00;97837.69;31451623;28;20135;-74
2021/11/29 16:42:05;;;;;;;38.00;7.67;;;;;;;12.41;100.00;97866.84;31450691;28;20139;-78
2021/11/29 16:57:07;;;;;;;28.73;8.43;;;;;;;12.28;100.00;97891.75;31480207;28;20547;-73
2021/11/29 17:12:10;;;;;;;40.63;8.53;;;;;;;12.16;100.00;97893.63;31475503;28;20139;-76
2021/11/29 17:27:12;;;;;;;41.00;10.17;;;;;;;12.07;100.00;97944.69;31445992;28;20057;-76
2021/11/29 17:42:15;;;;;;;37.17;9.03;;;;;;;11.98;100.00;97963.91;31436029;28;20375;-75
2021/11/29 17:58:10;;;;;;;28.40;8.27;;;;;;;11.87;100.00;97948.97;31457256;28;20058;-76
2021/11/29 18:13:12;;;;;;;49.10;11.97;;;;;;;11.87;100.00;97938.09;31452129;28;20509;-78
2021/11/29 18:28:17;;;;;;;42.57;13.00;;;;;;;11.83;100.00;97962.00;31433147;28;20067;-77
2021/11/29 18:43:22;;;;;;;29.03;9.43;;;;;;;11.81;100.00;97986.22;31444260;28;20052;-76
2021/11/29 18:58:24;;;;;;;28.57;7.93;;;;;;;11.69;100.00;97991.97;31438844;28;20425;-79
2021/11/29 19:13:26;;;;;;;27.17;8.33;;;;;;;11.46;100.00;97969.97;31424146;28;20123;-77
2021/11/29 19:28:28;;;;;;;26.83;11.53;;;;;;;11.24;100.00;97986.72;31385465;28;20147;-77
2021/11/29 19:43:33;;;;;;;25.90;8.57;;;;;;;11.09;100.00;98045.75;31433599;28;20055;-80
2021/11/29 19:58:39;;;;;;;27.63;9.10;;;;;;;11.01;100.00;97978.75;31418674;28;20139;-78
2021/11/29 20:13:45;;;;;;;28.87;9.63;;;;;;;10.90;100.00;98003.75;31460574;28;20149;-78
2021/11/29 20:28:47;;;;;;;33.23;10.07;;;;;;;10.85;100.00;98048.59;31441166;28;20459;-77
2021/11/29 20:43:51;;;;;;;28.63;10.53;;;;;;;10.68;100.00;98071.22;31445331;28;20135;-78
2021/11/29 20:58:54;;;;;;;28.87;11.13;;;;;;;10.63;100.00;98052.91;31455814;28;20052;-75
2021/11/29 21:13:56;;;;;;;21.73;8.57;;;;;;;10.57;100.00;98104.34;31431616;28;20052;-79
2021/11/29 21:28:59;;;;;;;25.33;8.87;;;;;;;10.55;100.00;98074.97;31464697;28;20168;-76
2021/11/29 21:44:11;;;;;;;;;;;;;;;;;;;;;
2021/11/29 21:59:16;;;;;;;22.93;10.57;;;;;;;10.55;100.00;98145.50;31470888;28;20102;-79
2021/11/29 22:14:18;;;;;;;25.33;10.20;;;;;;;10.38;100.00;98177.00;31450730;28;20124;-76
2021/11/29 22:29:20;;;;;;;15.47;7.90;;;;;;;10.29;100.00;98192.56;31425457;28;20066;-77
2021/11/29 22:44:22;;;;;;;32.60;13.87;;;;;;;10.24;100.00;98245.47;31475858;28;20486;-77
2021/11/29 22:59:27;;;;;;;22.63;11.83;;;;;;;10.30;100.00;98229.34;31422988;28;20049;-77
2021/11/29 23:14:30;;;;;;;28.23;12.50;;;;;;;10.24;100.00;98267.16;31453007;28;20043;-78
2021/11/29 23:29:33;;;;;;;23.70;12.37;;;;;;;10.18;100.00;98304.97;31446983;28;20044;-77
2021/11/29 23:44:35;;;;;;;27.63;12.53;;;;;;;10.08;100.00;98344.19;31426639;28;20143;-76
2021/11/29 23:59:37;;;;;;;20.67;11.40;;;;;;;9.77;100.00;98360.66;31427827;28;20139;-76
